createdAt,value
2022-08-20T00:02:28.484Z,97666.16
2022-08-20T00:05:38.747Z,97660.56
2022-08-20T00:08:41.145Z,97629.63
2022-08-20T00:11:45.312Z,97620.63
2022-08-20T00:14:47.583Z,97655.66
2022-08-20T00:17:53.039Z,97678.53
2022-08-20T00:20:56.793Z,97674.34
2022-08-20T00:23:59.568Z,97669.16
2022-08-20T00:27:02.607Z,97641.78
2022-08-20T00:30:08.077Z,97630.41
2022-08-20T00:33:13.908Z,97637.94
2022-08-20T00:36:17.750Z,97634.94
2022-08-20T00:39:21.715Z,97619.56
2022-08-20T00:42:24.049Z,97611.91
2022-08-20T00:45:28.713Z,97603.81
2022-08-20T00:48:33.192Z,97601.13
2022-08-20T00:51:51.709Z,97612.91
2022-08-20T00:54:58.893Z,97602.34
2022-08-20T00:58:09.968Z,97607.19
2022-08-20T01:01:12.607Z,97585.59
2022-08-20T01:04:14.773Z,97581.38
2022-08-20T01:07:20.516Z,97576.00
2022-08-20T01:10:28.081Z,97580.50
2022-08-20T01:13:31.961Z,97577.22
2022-08-20T01:16:34.897Z,97575.91
2022-08-20T01:19:45.633Z,97579.22
2022-08-20T01:23:14.185Z,97578.03
2022-08-20T01:26:18.256Z,97571.66
2022-08-20T01:29:24.482Z,97577.06
2022-08-20T01:32:26.312Z,97577.00
2022-08-20T01:35:29.060Z,97570.72
2022-08-20T01:38:31.152Z,97577.22
2022-08-20T01:41:39.193Z,97574.53
2022-08-20T01:44:42.982Z,97585.13
2022-08-20T01:47:45.804Z,97584.78
2022-08-20T01:51:24.144Z,97584.56
2022-08-20T01:54:28.717Z,97599.44
2022-08-20T01:57:31.051Z,97615.88
2022-08-20T02:00:35.813Z,97613.81
2022-08-20T02:03:41.830Z,97602.41
2022-08-20T02:06:59.940Z,97599.28
2022-08-20T02:10:02.654Z,97600.47
2022-08-20T02:13:06.115Z,97602.84
2022-08-20T02:16:11.290Z,97591.63
2022-08-20T02:19:21.148Z,97584.78
2022-08-20T02:22:34.120Z,97595.03
2022-08-20T02:25:38.485Z,97587.75
2022-08-20T02:28:41.511Z,97580.38
2022-08-20T02:32:31.163Z,97582.38
2022-08-20T02:35:10.543Z,97585.91
2022-08-20T02:38:12.962Z,97572.97
2022-08-20T02:41:15.576Z,97565.34
2022-08-20T02:44:20.572Z,97566.69
2022-08-20T02:47:22.476Z,97565.97
2022-08-20T02:50:26.484Z,97559.44
2022-08-20T02:53:33.637Z,97542.31
2022-08-20T02:56:36.171Z,97535.81
2022-08-20T02:59:39.078Z,97541.94
2022-08-20T03:02:41.368Z,97554.97
2022-08-20T03:05:44.391Z,97550.44
2022-08-20T03:08:46.620Z,97542.22
2022-08-20T03:11:49.090Z,97536.31
2022-08-20T03:14:50.976Z,97530.81
2022-08-20T03:17:53.448Z,97513.72
2022-08-20T03:20:59.251Z,97503.94
2022-08-20T03:24:02.249Z,97502.09
2022-08-20T03:27:04.473Z,97510.00
2022-08-20T03:30:11.900Z,97518.22
2022-08-20T03:33:13.898Z,97514.16
2022-08-20T03:36:20.755Z,97526.38
2022-08-20T03:39:24.269Z,97523.94
2022-08-20T03:42:27.305Z,97526.78
2022-08-20T03:45:30.117Z,97525.16
2022-08-20T03:48:33.073Z,97530.91
2022-08-20T03:51:57.851Z,97538.69
2022-08-20T03:54:59.838Z,97542.31
2022-08-20T03:58:08.243Z,97550.50
2022-08-20T04:01:44.202Z,97548.66
2022-08-20T04:04:32.944Z,97529.91
2022-08-20T04:07:38.485Z,97531.91
2022-08-20T04:10:40.569Z,97541.09
2022-08-20T04:13:43.475Z,97554.22
2022-08-20T04:16:49.897Z,97570.31
2022-08-20T04:19:53.349Z,97579.72
2022-08-20T04:22:59.350Z,97580.72
2022-08-20T04:26:01.978Z,97578.34
2022-08-20T04:29:06.310Z,97579.94
2022-08-20T04:32:09.236Z,97566.84
2022-08-20T04:35:18.300Z,97563.53
2022-08-20T04:38:22.762Z,97581.16
2022-08-20T04:41:32.559Z,97574.75
2022-08-20T04:44:35.809Z,97573.44
2022-08-20T04:47:38.079Z,97574.63
2022-08-20T04:50:46.871Z,97572.72
2022-08-20T04:53:51.935Z,97565.72
2022-08-20T04:56:55.554Z,97583.03
2022-08-20T04:59:59.560Z,97578.72
2022-08-20T05:03:02.606Z,97582.13
2022-08-20T05:06:11.005Z,97589.19
2022-08-20T05:09:13.063Z,97600.13
2022-08-20T05:12:18.222Z,97593.06
2022-08-20T05:15:24.447Z,97590.97
2022-08-20T05:18:29.366Z,97587.88
2022-08-20T05:21:31.396Z,97585.84
2022-08-20T05:24:34.420Z,97574.50
2022-08-20T05:27:39.700Z,97576.44
2022-08-20T05:30:43.654Z,97583.13
2022-08-20T05:33:56.155Z,97583.59
2022-08-20T05:36:58.818Z,97573.75
2022-08-20T05:40:09.140Z,97604.97
2022-08-20T05:43:14.994Z,97591.66
2022-08-20T05:46:17.937Z,97585.63
2022-08-20T05:49:21.833Z,97586.69
2022-08-20T05:52:24.429Z,97594.25
2022-08-20T05:55:27.545Z,97600.75
2022-08-20T05:58:33.377Z,97590.91
2022-08-20T06:01:38.999Z,97591.47
2022-08-20T06:04:41.600Z,97579.00
2022-08-20T06:07:47.200Z,97581.59
2022-08-20T06:10:49.593Z,97584.34
2022-08-20T06:13:52.552Z,97597.97
2022-08-20T06:16:57.844Z,97595.50
2022-08-20T06:20:07.180Z,97589.81
2022-08-20T06:23:09.638Z,97589.38
2022-08-20T06:26:12.749Z,97596.78
2022-08-20T06:29:16.757Z,97597.22
2022-08-20T06:32:32.007Z,97601.66
2022-08-20T06:35:38.237Z,97600.56
2022-08-20T06:38:40.978Z,97613.69
2022-08-20T06:41:45.347Z,97622.72
2022-08-20T06:44:53.988Z,97632.16
2022-08-20T06:47:59.057Z,97642.16
2022-08-20T06:51:02.433Z,97636.72
2022-08-20T06:54:05.678Z,97637.41
2022-08-20T06:57:08.984Z,97627.78
2022-08-20T07:00:14.798Z,97632.63
2022-08-20T07:03:17.323Z,97618.75
2022-08-20T07:06:19.552Z,97613.69
2022-08-20T07:09:24.818Z,97617.88
2022-08-20T07:12:26.944Z,97615.44
2022-08-20T07:15:29.754Z,97613.00
2022-08-20T07:18:32.300Z,97617.97
2022-08-20T07:21:35.541Z,97615.13
2022-08-20T07:24:41.557Z,97619.03
2022-08-20T07:27:47.315Z,97613.34
2022-08-20T07:31:13.844Z,97617.09
2022-08-20T07:34:19.550Z,97617.31
2022-08-20T07:37:25.051Z,97612.22
2022-08-20T07:40:29.707Z,97611.88
2022-08-20T07:43:42.316Z,97613.34
2022-08-20T07:46:45.560Z,97598.94
2022-08-20T07:49:47.708Z,97600.69
2022-08-20T07:52:52.772Z,97597.47
2022-08-20T07:55:59.016Z,97596.69
2022-08-20T07:59:02.542Z,97599.53
2022-08-20T08:02:05.720Z,97599.41
2022-08-20T08:05:08.492Z,97602.94
2022-08-20T08:08:14.981Z,97592.56
2022-08-20T08:11:19.507Z,97599.63
2022-08-20T08:14:27.592Z,97601.47
2022-08-20T08:17:31.383Z,97616.00
2022-08-20T08:20:38.204Z,97609.69
2022-08-20T08:23:53.657Z,97608.28
2022-08-20T08:26:56.184Z,97607.25
2022-08-20T08:30:00.173Z,97619.38
2022-08-20T08:33:21.951Z,97616.06
2022-08-20T08:36:27.599Z,97605.28
2022-08-20T08:39:34.961Z,97608.88
2022-08-20T08:42:44.377Z,97602.41
2022-08-20T08:46:00.474Z,97610.38
2022-08-20T08:49:04.444Z,97618.69
2022-08-20T08:52:16.413Z,97615.19
2022-08-20T08:55:23.356Z,97608.69
2022-08-20T08:58:26.001Z,97618.06
2022-08-20T09:01:55.615Z,97624.97
2022-08-20T09:04:51.901Z,97627.97
2022-08-20T09:07:54.412Z,97629.22
2022-08-20T09:11:02.646Z,97637.88
2022-08-20T09:14:05.145Z,97633.91
2022-08-20T09:17:08.484Z,97634.78
2022-08-20T09:20:11.216Z,97651.66
2022-08-20T09:23:14.402Z,97646.72
2022-08-20T09:26:16.635Z,97650.28
2022-08-20T09:29:18.880Z,97656.78
2022-08-20T09:32:24.913Z,97662.50
2022-08-20T09:35:28.987Z,97665.00
2022-08-20T09:38:31.783Z,97668.31
2022-08-20T09:41:34.818Z,97677.28
2022-08-20T09:44:37.824Z,97677.41
2022-08-20T09:47:55.025Z,97676.72
2022-08-20T09:51:04.102Z,97688.72
2022-08-20T09:54:06.661Z,97692.75
2022-08-20T09:57:12.725Z,97682.91
2022-08-20T10:00:15.630Z,97684.63
2022-08-20T10:03:19.376Z,97675.22
2022-08-20T10:06:21.497Z,97670.97
2022-08-20T10:09:24.060Z,97661.75
2022-08-20T10:12:26.687Z,97656.38
2022-08-20T10:15:30.074Z,97641.91
2022-08-20T10:18:35.473Z,97639.59
2022-08-20T10:21:39.282Z,97618.59
2022-08-20T10:24:41.486Z,97607.19
2022-08-20T10:27:45.834Z,97607.38
2022-08-20T10:30:48.127Z,97606.69
2022-08-20T10:33:50.322Z,97612.88
2022-08-20T10:36:52.431Z,97614.19
2022-08-20T10:39:55.371Z,97615.09
2022-08-20T10:42:57.725Z,97622.97
2022-08-20T10:46:03.632Z,97618.41
2022-08-20T10:49:06.325Z,97627.06
2022-08-20T10:52:08.483Z,97633.03
2022-08-20T10:55:11.570Z,97628.97
2022-08-20T10:58:13.889Z,97623.84
2022-08-20T11:01:31.545Z,97621.63
2022-08-20T11:04:36.824Z,97631.06
2022-08-20T11:07:54.736Z,97639.53
2022-08-20T11:10:58.654Z,97646.47
2022-08-20T11:14:02.173Z,97649.22
2022-08-20T11:17:05.820Z,97649.47
2022-08-20T11:20:09.476Z,97659.97
2022-08-20T11:23:13.785Z,97667.25
2022-08-20T11:26:23.795Z,97659.81
2022-08-20T11:29:29.970Z,97664.41
2022-08-20T11:32:35.969Z,97682.00
2022-08-20T11:35:43.279Z,97701.56
2022-08-20T11:38:51.631Z,97709.69
2022-08-20T11:41:54.883Z,97719.13
2022-08-20T11:44:57.814Z,97720.44
2022-08-20T11:48:00.583Z,97725.81
2022-08-20T11:51:04.562Z,97741.09
2022-08-20T11:54:07.932Z,97748.84
2022-08-20T11:57:10.318Z,97741.44
2022-08-20T12:00:22.263Z,97754.84
2022-08-20T12:03:36.941Z,97754.31
2022-08-20T12:06:39.324Z,97774.13
2022-08-20T12:09:50.397Z,97774.47
2022-08-20T12:13:02.709Z,97775.00
2022-08-20T12:16:07.056Z,97778.69
2022-08-20T12:19:09.223Z,97785.34
2022-08-20T12:22:24.956Z,97774.13
2022-08-20T12:25:27.652Z,97772.16
2022-08-20T12:28:31.634Z,97759.72
2022-08-20T12:31:34.145Z,97751.94
2022-08-20T12:34:39.136Z,97752.50
2022-08-20T12:37:42.111Z,97748.75
2022-08-20T12:40:44.767Z,97740.50
2022-08-20T12:43:47.424Z,97732.94
2022-08-20T12:46:49.730Z,97717.47
2022-08-20T12:49:55.792Z,97697.13
2022-08-20T12:52:58.323Z,97669.28
2022-08-20T12:56:03.010Z,97661.25
2022-08-20T12:59:05.325Z,97654.19
2022-08-20T13:02:14.387Z,97640.31
2022-08-20T13:05:21.471Z,97624.78
2022-08-20T13:08:23.755Z,97637.47
2022-08-20T13:11:26.441Z,97641.84
2022-08-20T13:14:29.023Z,97639.41
2022-08-20T13:17:38.857Z,97640.69
2022-08-20T13:20:42.581Z,97647.69
2022-08-20T13:23:45.645Z,97659.03
2022-08-20T13:26:48.943Z,97654.25
2022-08-20T13:29:58.576Z,97649.25
2022-08-20T13:33:02.413Z,97645.09
2022-08-20T13:36:07.084Z,97645.78
2022-08-20T13:39:09.213Z,97638.78
2022-08-20T13:42:13.081Z,97634.13
2022-08-20T13:45:15.599Z,97630.16
2022-08-20T13:48:19.455Z,97618.38
2022-08-20T13:51:21.801Z,97635.28
2022-08-20T13:54:29.531Z,97633.00
2022-08-20T13:57:33.030Z,97621.97
2022-08-20T14:00:36.139Z,97618.31
2022-08-20T14:03:38.378Z,97622.38
2022-08-20T14:06:41.538Z,97612.56
2022-08-20T14:09:46.917Z,97613.47
2022-08-20T14:12:49.972Z,97612.91
2022-08-20T14:15:52.752Z,97623.44
2022-08-20T14:18:57.491Z,97612.72
2022-08-20T14:22:00.181Z,97611.13
2022-08-20T14:25:04.457Z,97623.94
2022-08-20T14:28:25.053Z,97624.28
2022-08-20T14:31:28.067Z,97623.13
2022-08-20T14:34:31.160Z,97635.81
2022-08-20T14:37:38.300Z,97625.50
2022-08-20T14:40:44.024Z,97621.34
2022-08-20T14:43:49.343Z,97618.50
2022-08-20T14:46:51.574Z,97610.78
2022-08-20T14:49:55.476Z,97604.81
2022-08-20T14:52:58.822Z,97606.34
2022-08-20T14:56:02.854Z,97600.63
2022-08-20T14:59:05.094Z,97604.94
2022-08-20T15:02:09.314Z,97594.56
2022-08-20T15:05:14.744Z,97599.00
2022-08-20T15:08:17.894Z,97594.97
2022-08-20T15:11:21.315Z,97598.59
2022-08-20T15:14:24.536Z,97588.03
2022-08-20T15:17:29.513Z,97600.22
2022-08-20T15:20:34.882Z,97600.94
2022-08-20T15:23:37.146Z,97598.63
2022-08-20T15:26:39.985Z,97599.91
2022-08-20T15:29:44.247Z,97597.94
2022-08-20T15:32:49.282Z,97599.81
2022-08-20T15:35:53.607Z,97601.44
2022-08-20T15:39:01.040Z,97600.88
2022-08-20T15:42:03.680Z,97600.34
2022-08-20T15:45:07.598Z,97607.66
2022-08-20T15:48:15.751Z,97598.34
2022-08-20T15:51:33.424Z,97604.63
2022-08-20T15:54:35.884Z,97600.56
2022-08-20T15:57:46.842Z,97597.63
2022-08-20T16:01:11.315Z,97592.41
2022-08-20T16:04:31.222Z,97595.09
2022-08-20T16:08:01.423Z,97585.25
2022-08-20T16:11:03.730Z,97586.19
2022-08-20T16:14:19.034Z,97583.16
2022-08-20T16:17:41.396Z,97576.19
2022-08-20T16:20:47.846Z,97576.31
2022-08-20T16:23:55.501Z,97582.22
2022-08-20T16:27:10.750Z,97583.16
2022-08-20T16:30:26.562Z,97579.69
2022-08-20T16:33:28.810Z,97586.19
2022-08-20T16:36:40.253Z,97591.63
2022-08-20T16:40:11.670Z,97594.75
2022-08-20T16:43:22.549Z,97585.47
2022-08-20T16:46:28.397Z,97587.34
2022-08-20T16:49:31.734Z,97588.16
2022-08-20T16:52:34.865Z,97592.44
2022-08-20T16:55:37.181Z,97581.19
2022-08-20T16:58:40.136Z,97585.06
2022-08-20T17:01:43.338Z,97586.94
2022-08-20T17:04:58.780Z,97594.59
2022-08-20T17:08:07.545Z,97589.38
2022-08-20T17:11:17.267Z,97601.66
2022-08-20T17:14:19.974Z,97600.13
2022-08-20T17:17:26.593Z,97612.91
2022-08-20T17:20:29.260Z,97607.72
2022-08-20T17:23:49.219Z,97604.09
2022-08-20T17:27:02.760Z,97610.81
2022-08-20T17:30:27.142Z,97612.38
2022-08-20T17:33:33.552Z,97608.72
2022-08-20T17:36:38.309Z,97610.56
2022-08-20T17:39:49.611Z,97617.06
2022-08-20T17:43:02.011Z,97619.00
2022-08-20T17:46:08.565Z,97613.38
2022-08-20T17:49:19.375Z,97623.47
2022-08-20T17:52:32.345Z,97628.50
2022-08-20T17:55:37.344Z,97634.56
2022-08-20T17:58:54.116Z,97635.75
2022-08-20T18:01:58.870Z,97636.56
2022-08-20T18:05:01.337Z,97633.31
2022-08-20T18:08:07.205Z,97632.56
2022-08-20T18:11:18.040Z,97636.84
2022-08-20T18:14:40.946Z,97641.34
2022-08-20T18:18:04.102Z,97634.84
2022-08-20T18:21:24.006Z,97638.59
2022-08-20T18:24:54.401Z,97633.19
2022-08-20T18:28:04.008Z,97625.06
2022-08-20T18:31:09.232Z,97622.47
2022-08-20T18:34:18.416Z,97625.44
2022-08-20T18:37:27.138Z,97614.47
2022-08-20T18:40:33.430Z,97611.66
2022-08-20T18:43:38.002Z,97613.03
2022-08-20T18:46:57.089Z,97607.78
2022-08-20T18:50:16.800Z,97601.50
2022-08-20T18:53:24.701Z,97603.19
2022-08-20T18:56:42.666Z,97614.06
2022-08-20T18:59:49.584Z,97614.50
2022-08-20T19:03:17.546Z,97609.19
2022-08-20T19:06:45.322Z,97598.13
2022-08-20T19:10:17.328Z,97590.41
2022-08-20T19:13:48.525Z,97594.06
2022-08-20T19:17:05.876Z,97597.75
2022-08-20T19:20:16.471Z,97592.03
2022-08-20T19:23:24.362Z,97596.56
2022-08-20T19:26:30.072Z,97610.69
2022-08-20T19:29:41.121Z,97600.19
2022-08-20T19:32:52.634Z,97600.06
2022-08-20T19:35:54.815Z,97599.22
2022-08-20T19:39:02.795Z,97592.66
2022-08-20T19:42:19.275Z,97596.34
2022-08-20T19:45:31.656Z,97583.41
2022-08-20T19:48:41.046Z,97586.50
2022-08-20T19:52:05.835Z,97587.25
2022-08-20T19:55:37.241Z,97585.63
2022-08-20T19:58:43.386Z,97586.06
2022-08-20T20:02:02.067Z,97585.63
2022-08-20T20:05:09.657Z,97596.94
2022-08-20T20:08:12.194Z,97596.63
2022-08-20T20:11:21.012Z,97590.94
2022-08-20T20:14:28.701Z,97593.53
2022-08-20T20:17:34.650Z,97595.16
2022-08-20T20:20:50.163Z,97594.59
2022-08-20T20:24:01.332Z,97598.13
2022-08-20T20:27:03.815Z,97599.97
2022-08-20T20:30:10.906Z,97600.06
2022-08-20T20:33:19.559Z,97608.03
2022-08-20T20:36:35.058Z,97602.78
2022-08-20T20:39:41.439Z,97603.53
2022-08-20T20:42:43.904Z,97604.81
2022-08-20T20:45:47.078Z,97613.81
2022-08-20T20:48:57.175Z,97606.09
2022-08-20T20:52:03.240Z,97592.94
2022-08-20T20:55:23.099Z,97591.13
2022-08-20T20:58:25.666Z,97595.94
2022-08-20T21:01:49.642Z,97589.13
2022-08-20T21:04:51.963Z,97581.63
2022-08-20T21:07:59.907Z,97569.81
2022-08-20T21:11:02.509Z,97566.69
2022-08-20T21:14:05.005Z,97567.69
2022-08-20T21:17:10.115Z,97562.78
2022-08-20T21:20:12.576Z,97556.94
2022-08-20T21:23:17.812Z,97563.16
2022-08-20T21:26:20.264Z,97555.09
2022-08-20T21:29:32.746Z,97553.84
2022-08-20T21:32:35.520Z,97541.59
2022-08-20T21:35:37.625Z,97551.38
2022-08-20T21:38:40.171Z,97545.31
2022-08-20T21:41:43.486Z,97541.84
2022-08-20T21:44:50.216Z,97529.78
2022-08-20T21:47:52.271Z,97534.91
2022-08-20T21:51:02.543Z,97536.59
2022-08-20T21:54:04.654Z,97528.38
2022-08-20T21:57:14.388Z,97540.59
2022-08-20T22:00:54.655Z,97536.16
2022-08-20T22:03:56.780Z,97549.41
2022-08-20T22:06:59.074Z,97546.28
2022-08-20T22:10:01.058Z,97540.53
2022-08-20T22:13:04.338Z,97543.84
2022-08-20T22:16:11.682Z,97536.97
2022-08-20T22:19:16.083Z,97531.34
2022-08-20T22:22:19.281Z,97543.91
2022-08-20T22:25:23.501Z,97532.25
2022-08-20T22:28:26.743Z,97527.63
2022-08-20T22:31:34.131Z,97527.19
2022-08-20T22:34:36.415Z,97522.66
2022-08-20T22:37:39.025Z,97534.38
2022-08-20T22:40:41.895Z,97527.63
2022-08-20T22:43:56.690Z,97526.00
2022-08-20T22:47:03.056Z,97537.91
2022-08-20T22:50:06.143Z,97537.09
2022-08-20T22:53:08.729Z,97524.75
2022-08-20T22:56:19.723Z,97521.13
2022-08-20T22:59:24.346Z,97524.38
2022-08-20T23:02:27.659Z,97535.63
2022-08-20T23:05:31.867Z,97532.50
2022-08-20T23:08:33.984Z,97525.63
2022-08-20T23:11:36.451Z,97530.59
2022-08-20T23:14:39.734Z,97522.59
2022-08-20T23:17:41.864Z,97527.16
2022-08-20T23:20:48.835Z,97536.00
2022-08-20T23:23:50.766Z,97534.53
2022-08-20T23:26:53.502Z,97528.97
2022-08-20T23:29:56.074Z,97530.59
2022-08-20T23:32:58.462Z,97526.28
2022-08-20T23:36:05.661Z,97516.69
2022-08-20T23:39:09.580Z,97521.59
2022-08-20T23:42:13.106Z,97521.19
2022-08-20T23:45:15.993Z,97512.97
2022-08-20T23:48:18.198Z,97518.81
2022-08-20T23:51:20.892Z,97520.47
2022-08-20T23:54:23.066Z,97519.22
2022-08-20T23:57:24.938Z,97509.69
